sensor_id;sensor_type;location;lat;lon;timestamp;pressure;altitude;pressure_sealevel;temperature;humidity
8101;BME280;4093;53.470;9.832;2023-03-03T00:00:25;102333.88;;;4.88;81.89
8101;BME280;4093;53.470;9.832;2023-03-03T00:02:53;102347.25;;;5.05;82.21
8101;BME280;4093;53.470;9.832;2023-03-03T00:05:22;102339.94;;;5.17;81.81
8101;BME280;4093;53.470;9.832;2023-03-03T00:07:50;102326.66;;;5.30;81.83
8101;BME280;4093;53.470;9.832;2023-03-03T00:10:18;102335.81;;;5.22;81.75
8101;BME280;4093;53.470;9.832;2023-03-03T00:12:47;102334.38;;;5.32;81.24
8101;BME280;4093;53.470;9.832;2023-03-03T00:15:19;102333.34;;;5.25;82.95
8101;BME280;4093;53.470;9.832;2023-03-03T00:17:47;102336.19;;;5.34;83.06
8101;BME280;4093;53.470;9.832;2023-03-03T00:20:30;102322.69;;;5.12;83.65
8101;BME280;4093;53.470;9.832;2023-03-03T00:23:08;102332.44;;;5.23;83.83
8101;BME280;4093;53.470;9.832;2023-03-03T00:25:42;102324.81;;;5.26;83.78
8101;BME280;4093;53.470;9.832;2023-03-03T00:28:22;102322.31;;;5.28;83.05
8101;BME280;4093;53.470;9.832;2023-03-03T00:30:53;102330.78;;;5.25;83.77
8101;BME280;4093;53.470;9.832;2023-03-03T00:33:28;102331.78;;;5.30;83.99
8101;BME280;4093;53.470;9.832;2023-03-03T00:36:24;102346.59;;;5.39;83.67
8101;BME280;4093;53.470;9.832;2023-03-03T00:38:55;102338.47;;;5.25;83.56
8101;BME280;4093;53.470;9.832;2023-03-03T00:41:25;102334.84;;;5.47;82.90
8101;BME280;4093;53.470;9.832;2023-03-03T00:43:53;102333.06;;;5.45;82.74
8101;BME280;4093;53.470;9.832;2023-03-03T00:46:22;102318.22;;;5.34;82.85
8101;BME280;4093;53.470;9.832;2023-03-03T00:48:50;102319.34;;;5.14;84.55
8101;BME280;4093;53.470;9.832;2023-03-03T00:51:26;102333.63;;;5.34;84.07
8101;BME280;4093;53.470;9.832;2023-03-03T00:53:55;102326.47;;;5.24;83.97
8101;BME280;4093;53.470;9.832;2023-03-03T00:56:23;102336.19;;;5.34;83.77
8101;BME280;4093;53.470;9.832;2023-03-03T00:58:51;102329.94;;;5.26;84.26
8101;BME280;4093;53.470;9.832;2023-03-03T01:01:18;102327.94;;;5.16;85.20
8101;BME280;4093;53.470;9.832;2023-03-03T01:03:48;102314.81;;;5.07;86.10
8101;BME280;4093;53.470;9.832;2023-03-03T01:06:15;102330.13;;;5.32;85.51
8101;BME280;4093;53.470;9.832;2023-03-03T01:08:43;102326.66;;;5.30;85.46
8101;BME280;4093;53.470;9.832;2023-03-03T01:11:13;102328.47;;;5.33;86.05
8101;BME280;4093;53.470;9.832;2023-03-03T01:13:44;102324.69;;;5.22;85.94
8101;BME280;4093;53.470;9.832;2023-03-03T01:16:12;102328.97;;;5.23;86.65
8101;BME280;4093;53.470;9.832;2023-03-03T01:18:40;102326.69;;;5.32;86.31
8101;BME280;4093;53.470;9.832;2023-03-03T01:21:10;102322.34;;;5.29;86.87
8101;BME280;4093;53.470;9.832;2023-03-03T01:23:38;102300.75;;;5.21;85.85
8101;BME280;4093;53.470;9.832;2023-03-03T01:26:06;102320.31;;;5.18;86.88
8101;BME280;4093;53.470;9.832;2023-03-03T01:28:34;102323.53;;;5.41;86.36
8101;BME280;4093;53.470;9.832;2023-03-03T01:31:03;102271.16;;;5.04;86.70
8101;BME280;4093;53.470;9.832;2023-03-03T01:33:32;102323.53;;;5.41;86.03
8101;BME280;4093;53.470;9.832;2023-03-03T01:36:00;102309.59;;;5.32;86.61
8101;BME280;4093;53.470;9.832;2023-03-03T01:38:29;102313.97;;;5.35;86.47
8101;BME280;4093;53.470;9.832;2023-03-03T01:40:58;102310.44;;;5.31;87.17
8101;BME280;4093;53.470;9.832;2023-03-03T01:43:27;102302.25;;;5.43;87.22
8101;BME280;4093;53.470;9.832;2023-03-03T01:46:20;102300.25;;;5.33;88.20
8101;BME280;4093;53.470;9.832;2023-03-03T01:48:56;102309.09;;;5.44;87.83
8101;BME280;4093;53.470;9.832;2023-03-03T01:51:30;102309.09;;;5.14;88.89
8101;BME280;4093;53.470;9.832;2023-03-03T01:54:01;102305.28;;;5.30;87.89
8101;BME280;4093;53.470;9.832;2023-03-03T01:56:29;102303.50;;;5.27;87.48
8101;BME280;4093;53.470;9.832;2023-03-03T01:59:00;102303.31;;;5.21;87.63
8101;BME280;4093;53.470;9.832;2023-03-03T02:01:31;102299.63;;;5.13;87.41
8101;BME280;4093;53.470;9.832;2023-03-03T02:04:00;102298.09;;;4.91;89.26
8101;BME280;4093;53.470;9.832;2023-03-03T02:06:31;102298.09;;;5.18;88.73
8101;BME280;4093;53.470;9.832;2023-03-03T02:09:06;102298.41;;;5.29;88.39
8101;BME280;4093;53.470;9.832;2023-03-03T02:11:37;102295.34;;;5.12;89.00
8101;BME280;4093;53.470;9.832;2023-03-03T02:14:07;102295.44;;;5.15;89.76
8101;BME280;4093;53.470;9.832;2023-03-03T02:16:34;102300.94;;;5.27;89.45
8101;BME280;4093;53.470;9.832;2023-03-03T02:19:03;102313.19;;;5.38;88.98
8101;BME280;4093;53.470;9.832;2023-03-03T02:21:32;102296.22;;;5.13;88.50
8101;BME280;4093;53.470;9.832;2023-03-03T02:24:04;102304.25;;;4.96;90.06
8101;BME280;4093;53.470;9.832;2023-03-03T02:26:39;102299.53;;;5.10;89.56
8101;BME280;4093;53.470;9.832;2023-03-03T02:29:08;102308.09;;;5.10;89.75
8101;BME280;4093;53.470;9.832;2023-03-03T02:31:36;102308.53;;;4.96;91.04
8101;BME280;4093;53.470;9.832;2023-03-03T02:34:04;102301.13;;;5.05;90.27
8101;BME280;4093;53.470;9.832;2023-03-03T02:36:34;102296.78;;;5.04;90.19
8101;BME280;4093;53.470;9.832;2023-03-03T02:39:05;102304.00;;;5.16;91.14
8101;BME280;4093;53.470;9.832;2023-03-03T02:41:39;102297.72;;;5.34;89.83
8101;BME280;4093;53.470;9.832;2023-03-03T02:44:12;102289.53;;;5.48;88.77
8101;BME280;4093;53.470;9.832;2023-03-03T02:46:42;102289.34;;;5.40;88.13
8101;BME280;4093;53.470;9.832;2023-03-03T02:49:13;102296.47;;;5.22;88.80
8101;BME280;4093;53.470;9.832;2023-03-03T02:51:41;102300.84;;;5.24;89.08
8101;BME280;4093;53.470;9.832;2023-03-03T02:54:11;102299.03;;;5.20;88.87
8101;BME280;4093;53.470;9.832;2023-03-03T02:56:41;102307.13;;;5.07;89.94
8101;BME280;4093;53.470;9.832;2023-03-03T02:59:09;102295.94;;;5.03;88.78
8101;BME280;4093;53.470;9.832;2023-03-03T03:01:37;102294.13;;;5.01;89.33
8101;BME280;4093;53.470;9.832;2023-03-03T03:04:07;102293.63;;;4.84;89.16
8101;BME280;4093;53.470;9.832;2023-03-03T03:06:36;102301.03;;;5.02;89.49
8101;BME280;4093;53.470;9.832;2023-03-03T03:09:04;102301.22;;;4.81;89.00
8101;BME280;4093;53.470;9.832;2023-03-03T03:11:34;102289.66;;;4.94;89.23
8101;BME280;4093;53.470;9.832;2023-03-03T03:14:04;102300.88;;;4.70;89.77
8101;BME280;4093;53.470;9.832;2023-03-03T03:16:32;102315.28;;;4.94;89.11
8101;BME280;4093;53.470;9.832;2023-03-03T03:19:01;102316.31;;;4.99;89.28
8101;BME280;4093;53.470;9.832;2023-03-03T03:21:29;102315.09;;;5.16;88.73
8101;BME280;4093;53.470;9.832;2023-03-03T03:23:58;102315.00;;;5.12;88.95
8101;BME280;4093;53.470;9.832;2023-03-03T03:26:26;102317.16;;;4.72;90.01
8101;BME280;4093;53.470;9.832;2023-03-03T03:28:54;102321.56;;;4.76;90.46
8101;BME280;4093;53.470;9.832;2023-03-03T03:31:23;102321.38;;;4.97;89.61
8101;BME280;4093;53.470;9.832;2023-03-03T03:33:51;102325.72;;;5.00;89.30
8101;BME280;4093;53.470;9.832;2023-03-03T03:36:18;102314.97;;;4.83;88.81
8101;BME280;4093;53.470;9.832;2023-03-03T03:38:46;102323.25;;;5.03;89.11
8101;BME280;4093;53.470;9.832;2023-03-03T03:41:14;102322.88;;;4.91;88.56
8101;BME280;4093;53.470;9.832;2023-03-03T03:43:41;102307.00;;;5.02;88.22
8101;BME280;4093;53.470;9.832;2023-03-03T03:46:09;102316.50;;;5.05;88.26
8101;BME280;4093;53.470;9.832;2023-03-03T03:48:38;102311.28;;;4.75;89.41
8101;BME280;4093;53.470;9.832;2023-03-03T03:51:06;102318.59;;;4.90;88.65
8101;BME280;4093;53.470;9.832;2023-03-03T03:53:34;102316.25;;;4.70;89.50
8101;BME280;4093;53.470;9.832;2023-03-03T03:56:02;102323.69;;;4.62;90.36
8101;BME280;4093;53.470;9.832;2023-03-03T03:58:29;102322.91;;;4.65;89.98
8101;BME280;4093;53.470;9.832;2023-03-03T04:01:01;102329.78;;;4.93;89.63
8101;BME280;4093;53.470;9.832;2023-03-03T04:03:29;102323.34;;;5.06;88.53
8101;BME280;4093;53.470;9.832;2023-03-03T04:05:58;102279.50;;;4.70;88.70
8101;BME280;4093;53.470;9.832;2023-03-03T04:08:26;102310.25;;;4.97;88.86
8101;BME280;4093;53.470;9.832;2023-03-03T04:10:54;102307.03;;;5.04;88.43
8101;BME280;4093;53.470;9.832;2023-03-03T04:13:22;102299.44;;;5.07;87.99
8101;BME280;4093;53.470;9.832;2023-03-03T04:15:49;102299.91;;;4.94;87.23
8101;BME280;4093;53.470;9.832;2023-03-03T04:18:17;102292.19;;;4.92;88.42
8101;BME280;4093;53.470;9.832;2023-03-03T04:20:45;102291.28;;;4.92;88.08
8101;BME280;4093;53.470;9.832;2023-03-03T04:23:14;102289.16;;;5.05;88.11
8101;BME280;4093;53.470;9.832;2023-03-03T04:25:42;102292.03;;;4.87;89.04
8101;BME280;4093;53.470;9.832;2023-03-03T04:28:10;102281.59;;;4.81;89.10
8101;BME280;4093;53.470;9.832;2023-03-03T04:30:37;102294.41;;;4.81;89.34
8101;BME280;4093;53.470;9.832;2023-03-03T04:33:05;102279.31;;;4.63;89.99
8101;BME280;4093;53.470;9.832;2023-03-03T04:35:33;102292.38;;;4.98;88.73
8101;BME280;4093;53.470;9.832;2023-03-03T04:38:01;102289.63;;;4.65;89.74
8101;BME280;4093;53.470;9.832;2023-03-03T04:40:31;102294.75;;;4.65;88.46
8101;BME280;4093;53.470;9.832;2023-03-03T04:42:59;102304.94;;;4.91;88.00
8101;BME280;4093;53.470;9.832;2023-03-03T04:45:27;102289.44;;;4.86;87.46
8101;BME280;4093;53.470;9.832;2023-03-03T04:47:54;102289.28;;;4.81;88.75
8101;BME280;4093;53.470;9.832;2023-03-03T04:50:22;102282.50;;;4.83;88.01
8101;BME280;4093;53.470;9.832;2023-03-03T04:52:50;102289.28;;;4.81;88.46
8101;BME280;4093;53.470;9.832;2023-03-03T04:55:18;102300.78;;;4.94;88.59
8101;BME280;4093;53.470;9.832;2023-03-03T04:57:47;102283.56;;;4.90;87.98
8101;BME280;4093;53.470;9.832;2023-03-03T05:00:15;102285.69;;;4.76;89.26
8101;BME280;4093;53.470;9.832;2023-03-03T05:02:43;102286.31;;;4.69;89.69
8101;BME280;4093;53.470;9.832;2023-03-03T05:05:10;102288.53;;;4.85;89.34
8101;BME280;4093;53.470;9.832;2023-03-03T05:07:39;102238.16;;;4.05;89.93
8101;BME280;4093;53.470;9.832;2023-03-03T05:10:08;102293.50;;;4.54;90.17
8101;BME280;4093;53.470;9.832;2023-03-03T05:12:36;102302.03;;;4.80;88.73
8101;BME280;4093;53.470;9.832;2023-03-03T05:15:07;102299.03;;;4.66;89.67
8101;BME280;4093;53.470;9.832;2023-03-03T05:17:34;102265.81;;;4.69;88.50
8101;BME280;4093;53.470;9.832;2023-03-03T05:20:03;102300.47;;;4.85;88.42
8101;BME280;4093;53.470;9.832;2023-03-03T05:22:33;102306.47;;;4.85;87.65
8101;BME280;4093;53.470;9.832;2023-03-03T05:25:01;102307.22;;;4.81;87.57
8101;BME280;4093;53.470;9.832;2023-03-03T05:27:29;102312.31;;;4.80;87.47
8101;BME280;4093;53.470;9.832;2023-03-03T05:29:56;102312.34;;;4.81;88.32
8101;BME280;4093;53.470;9.832;2023-03-03T05:32:26;102303.69;;;5.05;88.35
8101;BME280;4093;53.470;9.832;2023-03-03T05:34:53;102306.13;;;4.73;87.75
8101;BME280;4093;53.470;9.832;2023-03-03T05:37:21;102304.72;;;4.57;89.14
8101;BME280;4093;53.470;9.832;2023-03-03T05:39:49;102317.47;;;4.81;88.87
8101;BME280;4093;53.470;9.832;2023-03-03T05:42:17;102310.06;;;4.91;87.72
8101;BME280;4093;53.470;9.832;2023-03-03T05:44:45;102302.34;;;4.89;87.65
8101;BME280;4093;53.470;9.832;2023-03-03T05:47:13;102301.97;;;4.78;87.86
8101;BME280;4093;53.470;9.832;2023-03-03T05:49:42;102301.84;;;4.74;87.58
8101;BME280;4093;53.470;9.832;2023-03-03T05:52:10;102307.44;;;4.62;88.28
8101;BME280;4093;53.470;9.832;2023-03-03T05:54:37;102305.75;;;4.62;87.96
8101;BME280;4093;53.470;9.832;2023-03-03T05:57:05;102308.81;;;4.78;88.29
8101;BME280;4093;53.470;9.832;2023-03-03T05:59:33;102306.41;;;4.57;88.74
8101;BME280;4093;53.470;9.832;2023-03-03T06:02:00;102315.53;;;4.74;87.82
8101;BME280;4093;53.470;9.832;2023-03-03T06:04:28;102315.84;;;4.32;89.24
8101;BME280;4093;53.470;9.832;2023-03-03T06:06:57;102311.06;;;4.69;88.48
8101;BME280;4093;53.470;9.832;2023-03-03T06:09:25;102313.13;;;4.53;88.75
8101;BME280;4093;53.470;9.832;2023-03-03T06:11:53;102309.56;;;4.48;88.23
8101;BME280;4093;53.470;9.832;2023-03-03T06:14:21;102317.13;;;4.71;87.85
8101;BME280;4093;53.470;9.832;2023-03-03T06:16:52;102312.59;;;4.63;87.97
8101;BME280;4093;53.470;9.832;2023-03-03T06:19:20;102307.53;;;4.65;87.49
8101;BME280;4093;53.470;9.832;2023-03-03T06:21:48;102307.16;;;4.27;89.68
8101;BME280;4093;53.470;9.832;2023-03-03T06:24:17;102330.34;;;4.57;88.80
8101;BME280;4093;53.470;9.832;2023-03-03T06:26:44;102337.34;;;4.63;88.10
8101;BME280;4093;53.470;9.832;2023-03-03T06:29:12;102331.34;;;4.61;87.87
8101;BME280;4093;53.470;9.832;2023-03-03T06:31:41;102337.34;;;4.63;87.69
8101;BME280;4093;53.470;9.832;2023-03-03T06:34:09;102335.56;;;4.60;88.92
8101;BME280;4093;53.470;9.832;2023-03-03T06:36:37;102348.06;;;4.77;88.56
8101;BME280;4093;53.470;9.832;2023-03-03T06:39:05;102340.44;;;4.53;88.94
8101;BME280;4093;53.470;9.832;2023-03-03T06:41:34;102342.91;;;4.50;89.88
8101;BME280;4093;53.470;9.832;2023-03-03T06:44:02;102308.53;;;4.43;88.89
8101;BME280;4093;53.470;9.832;2023-03-03T06:46:30;102344.25;;;4.64;89.05
8101;BME280;4093;53.470;9.832;2023-03-03T06:48:57;102347.28;;;4.79;88.89
8101;BME280;4093;53.470;9.832;2023-03-03T06:51:30;102338.22;;;4.89;88.04
8101;BME280;4093;53.470;9.832;2023-03-03T06:54:01;102353.19;;;4.77;88.09
8101;BME280;4093;53.470;9.832;2023-03-03T06:56:30;102352.63;;;4.60;88.23
8101;BME280;4093;53.470;9.832;2023-03-03T06:59:04;102355.16;;;4.85;88.31
8101;BME280;4093;53.470;9.832;2023-03-03T07:01:35;102359.03;;;5.00;88.01
8101;BME280;4093;53.470;9.832;2023-03-03T07:04:10;102352.50;;;4.82;88.08
8101;BME280;4093;53.470;9.832;2023-03-03T07:06:40;102353.22;;;4.51;89.75
8101;BME280;4093;53.470;9.832;2023-03-03T07:09:13;102353.19;;;4.77;90.19
8101;BME280;4093;53.470;9.832;2023-03-03T07:11:45;102362.19;;;4.91;88.77
8101;BME280;4093;53.470;9.832;2023-03-03T07:14:15;102338.28;;;4.65;88.86
8101;BME280;4093;53.470;9.832;2023-03-03T07:16:45;102344.53;;;4.73;89.07
8101;BME280;4093;53.470;9.832;2023-03-03T07:19:17;102344.63;;;4.51;89.02
8101;BME280;4093;53.470;9.832;2023-03-03T07:21:46;102367.41;;;4.67;88.74
8101;BME280;4093;53.470;9.832;2023-03-03T07:24:24;102380.88;;;4.88;88.07
8101;BME280;4093;53.470;9.832;2023-03-03T07:26:54;102378.63;;;4.98;87.75
8101;BME280;4093;53.470;9.832;2023-03-03T07:29:28;102381.41;;;4.78;87.68
8101;BME280;4093;53.470;9.832;2023-03-03T07:31:58;102383.44;;;4.88;88.03
8101;BME280;4093;53.470;9.832;2023-03-03T07:34:29;102383.38;;;5.13;87.47
8101;BME280;4093;53.470;9.832;2023-03-03T07:37:02;102380.53;;;5.30;87.11
8101;BME280;4093;53.470;9.832;2023-03-03T07:39:34;102351.25;;;4.97;87.61
8101;BME280;4093;53.470;9.832;2023-03-03T07:42:20;102387.91;;;5.21;87.88
8101;BME280;4093;53.470;9.832;2023-03-03T07:44:51;102388.06;;;4.99;88.20
8101;BME280;4093;53.470;9.832;2023-03-03T07:47:23;102382.69;;;5.18;88.53
8101;BME280;4093;53.470;9.832;2023-03-03T07:49:51;102378.25;;;5.40;87.93
8101;BME280;4093;53.470;9.832;2023-03-03T07:52:26;102381.47;;;5.07;88.23
8101;BME280;4093;53.470;9.832;2023-03-03T07:54:55;102382.78;;;5.21;87.45
8101;BME280;4093;53.470;9.832;2023-03-03T07:57:25;102375.75;;;5.14;87.91
8101;BME280;4093;53.470;9.832;2023-03-03T07:59:59;102382.81;;;5.23;87.23
8101;BME280;4093;53.470;9.832;2023-03-03T08:02:38;102380.41;;;5.27;86.84
8101;BME280;4093;53.470;9.832;2023-03-03T08:05:36;102377.53;;;4.90;89.01
8101;BME280;4093;53.470;9.832;2023-03-03T08:08:18;102384.34;;;5.16;88.31
8101;BME280;4093;53.470;9.832;2023-03-03T08:10:49;102386.16;;;5.47;87.71
8101;BME280;4093;53.470;9.832;2023-03-03T08:13:19;102376.84;;;5.51;86.57
8101;BME280;4093;53.470;9.832;2023-03-03T08:15:50;102373.47;;;5.52;86.49
8101;BME280;4093;53.470;9.832;2023-03-03T08:18:22;102370.25;;;5.59;85.96
8101;BME280;4093;53.470;9.832;2023-03-03T08:20:53;102373.13;;;5.41;86.72
8101;BME280;4093;53.470;9.832;2023-03-03T08:23:21;102344.78;;;4.81;88.60
8101;BME280;4093;53.470;9.832;2023-03-03T08:25:50;102375.94;;;5.49;88.41
8101;BME280;4093;53.470;9.832;2023-03-03T08:28:19;102371.41;;;5.69;87.58
8101;BME280;4093;53.470;9.832;2023-03-03T08:30:49;102374.25;;;5.79;86.05
8101;BME280;4093;53.470;9.832;2023-03-03T08:33:25;102366.34;;;5.72;85.89
8101;BME280;4093;53.470;9.832;2023-03-03T08:35:53;102365.84;;;5.84;86.09
8101;BME280;4093;53.470;9.832;2023-03-03T08:38:21;102365.50;;;5.43;88.38
8101;BME280;4093;53.470;9.832;2023-03-03T08:40:49;102361.03;;;5.08;88.35
8101;BME280;4093;53.470;9.832;2023-03-03T08:43:17;102358.84;;;5.21;88.55
8101;BME280;4093;53.470;9.832;2023-03-03T08:45:49;102356.00;;;5.12;90.15
8101;BME280;4093;53.470;9.832;2023-03-03T08:48:18;102354.09;;;5.62;89.14
8101;BME280;4093;53.470;9.832;2023-03-03T08:50:46;102345.56;;;5.05;89.40
8101;BME280;4093;53.470;9.832;2023-03-03T08:53:15;102361.16;;;5.40;89.34
8101;BME280;4093;53.470;9.832;2023-03-03T08:55:43;102347.19;;;5.30;89.30
8101;BME280;4093;53.470;9.832;2023-03-03T08:58:10;102361.13;;;5.69;88.71
8101;BME280;4093;53.470;9.832;2023-03-03T09:00:38;102355.50;;;5.82;88.46
8101;BME280;4093;53.470;9.832;2023-03-03T09:03:08;102356.75;;;5.95;87.50
8101;BME280;4093;53.470;9.832;2023-03-03T09:05:37;102355.53;;;6.12;86.33
8101;BME280;4093;53.470;9.832;2023-03-03T09:08:07;102359.13;;;6.19;86.88
8101;BME280;4093;53.470;9.832;2023-03-03T09:10:35;102353.50;;;5.70;87.34
8101;BME280;4093;53.470;9.832;2023-03-03T09:13:07;102341.66;;;5.45;88.12
8101;BME280;4093;53.470;9.832;2023-03-03T09:15:39;102346.41;;;5.62;88.03
8101;BME280;4093;53.470;9.832;2023-03-03T09:18:14;102347.19;;;5.30;88.91
8101;BME280;4093;53.470;9.832;2023-03-03T09:20:43;102354.03;;;5.60;87.84
8101;BME280;4093;53.470;9.832;2023-03-03T09:23:33;102361.59;;;5.55;89.05
8101;BME280;4093;53.470;9.832;2023-03-03T09:26:18;102373.50;;;6.12;87.10
8101;BME280;4093;53.470;9.832;2023-03-03T09:28:48;102361.13;;;5.69;88.05
8101;BME280;4093;53.470;9.832;2023-03-03T09:31:24;102371.19;;;6.21;87.11
8101;BME280;4093;53.470;9.832;2023-03-03T09:33:54;102375.56;;;6.25;87.45
8101;BME280;4093;53.470;9.832;2023-03-03T09:36:26;102368.78;;;5.96;86.93
8101;BME280;4093;53.470;9.832;2023-03-03T09:38:55;102348.41;;;5.73;87.91
8101;BME280;4093;53.470;9.832;2023-03-03T09:41:39;102386.69;;;5.94;87.57
8101;BME280;4093;53.470;9.832;2023-03-03T09:44:21;102386.75;;;5.96;88.68
8101;BME280;4093;53.470;9.832;2023-03-03T09:47:05;102380.59;;;5.91;86.80
8101;BME280;4093;53.470;9.832;2023-03-03T09:49:40;102390.19;;;5.96;86.86
8101;BME280;4093;53.470;9.832;2023-03-03T09:52:32;102391.50;;;5.84;86.71
8101;BME280;4093;53.470;9.832;2023-03-03T09:55:21;102389.06;;;5.88;87.74
8101;BME280;4093;53.470;9.832;2023-03-03T09:58:06;102392.94;;;6.02;87.57
8101;BME280;4093;53.470;9.832;2023-03-03T10:00:46;102392.88;;;6.33;86.76
8101;BME280;4093;53.470;9.832;2023-03-03T10:03:53;102394.00;;;6.42;87.81
8101;BME280;4093;53.470;9.832;2023-03-03T10:06:30;102391.81;;;6.56;88.31
8101;BME280;4093;53.470;9.832;2023-03-03T10:12:08;102377.22;;;6.23;87.42
8101;BME280;4093;53.470;9.832;2023-03-03T10:14:57;102382.66;;;6.02;88.76
8101;BME280;4093;53.470;9.832;2023-03-03T10:17:36;102383.09;;;6.18;88.71
8101;BME280;4093;53.470;9.832;2023-03-03T10:20:22;102379.72;;;6.20;89.64
8101;BME280;4093;53.470;9.832;2023-03-03T10:22:54;102384.69;;;6.46;87.98
8101;BME280;4093;53.470;9.832;2023-03-03T10:25:34;102375.78;;;6.66;88.31
8101;BME280;4093;53.470;9.832;2023-03-03T10:28:18;102367.69;;;6.51;88.25
8101;BME280;4093;53.470;9.832;2023-03-03T10:31:04;102371.09;;;6.50;88.99
8101;BME280;4093;53.470;9.832;2023-03-03T10:33:47;102369.13;;;6.75;88.09
8101;BME280;4093;53.470;9.832;2023-03-03T10:36:40;102365.84;;;5.84;91.23
8101;BME280;4093;53.470;9.832;2023-03-03T10:39:34;102377.69;;;6.09;91.95
8101;BME280;4093;53.470;9.832;2023-03-03T10:42:20;102375.59;;;6.93;88.79
8101;BME280;4093;53.470;9.832;2023-03-03T10:45:11;102338.53;;;6.85;87.28
8101;BME280;4093;53.470;9.832;2023-03-03T10:47:51;102379.53;;;7.53;86.60
8101;BME280;4093;53.470;9.832;2023-03-03T10:50:24;102333.78;;;7.40;85.77
8101;BME280;4093;53.470;9.832;2023-03-03T10:53:02;102357.69;;;6.97;87.84
8101;BME280;4093;53.470;9.832;2023-03-03T10:55:44;102348.34;;;7.02;87.24
8101;BME280;4093;53.470;9.832;2023-03-03T10:58:35;102362.31;;;7.11;86.51
8101;BME280;4093;53.470;9.832;2023-03-03T11:01:17;102359.84;;;7.16;87.73
8101;BME280;4093;53.470;9.832;2023-03-03T11:06:54;102319.13;;;6.98;86.66
8101;BME280;4093;53.470;9.832;2023-03-03T11:09:33;102349.09;;;7.34;87.51
8101;BME280;4093;53.470;9.832;2023-03-03T11:12:18;102341.16;;;7.25;86.91
8101;BME280;4093;53.470;9.832;2023-03-03T11:15:01;102336.59;;;7.11;88.27
8101;BME280;4093;53.470;9.832;2023-03-03T11:17:40;102343.59;;;7.18;88.32
8101;BME280;4093;53.470;9.832;2023-03-03T11:20:26;102345.66;;;7.33;87.47
8101;BME280;4093;53.470;9.832;2023-03-03T11:23:02;102317.16;;;7.67;87.08
8101;BME280;4093;53.470;9.832;2023-03-03T11:25:39;102337.44;;;7.51;86.50
8101;BME280;4093;53.470;9.832;2023-03-03T11:28:29;102328.06;;;7.55;86.75
8101;BME280;4093;53.470;9.832;2023-03-03T11:31:14;102327.84;;;7.85;85.10
8101;BME280;4093;53.470;9.832;2023-03-03T11:33:52;102327.03;;;7.87;85.68
8101;BME280;4093;53.470;9.832;2023-03-03T11:36:27;102296.13;;;7.44;86.48
8101;BME280;4093;53.470;9.832;2023-03-03T11:39:02;102301.03;;;7.75;86.49
8101;BME280;4093;53.470;9.832;2023-03-03T11:41:34;102312.03;;;7.67;86.72
8101;BME280;4093;53.470;9.832;2023-03-03T11:44:12;102313.81;;;8.16;86.08
8101;BME280;4093;53.470;9.832;2023-03-03T11:46:45;102313.59;;;8.49;84.01
8101;BME280;4093;53.470;9.832;2023-03-03T11:49:20;102301.00;;;8.21;85.24
8101;BME280;4093;53.470;9.832;2023-03-03T11:51:56;102310.41;;;8.66;83.58
8101;BME280;4093;53.470;9.832;2023-03-03T11:54:31;102299.16;;;9.18;82.00
8101;BME280;4093;53.470;9.832;2023-03-03T11:57:13;102290.91;;;9.48;80.52
8101;BME280;4093;53.470;9.832;2023-03-03T11:59:48;102279.78;;;9.54;80.52
8101;BME280;4093;53.470;9.832;2023-03-03T12:02:35;102284.09;;;9.55;80.83
8101;BME280;4093;53.470;9.832;2023-03-03T12:05:25;102271.22;;;9.58;81.13
8101;BME280;4093;53.470;9.832;2023-03-03T12:08:00;102269.59;;;9.66;79.35
8101;BME280;4093;53.470;9.832;2023-03-03T12:10:35;102258.97;;;9.39;80.41
8101;BME280;4093;53.470;9.832;2023-03-03T12:13:11;102253.69;;;10.10;79.35
8101;BME280;4093;53.470;9.832;2023-03-03T12:15:50;102254.53;;;10.08;77.54
8101;BME280;4093;53.470;9.832;2023-03-03T12:18:41;102235.50;;;9.98;76.76
8101;BME280;4093;53.470;9.832;2023-03-03T12:21:24;102229.38;;;9.88;75.89
8101;BME280;4093;53.470;9.832;2023-03-03T12:24:04;102165.31;;;9.54;75.56
8101;BME280;4093;53.470;9.832;2023-03-03T12:26:42;102233.13;;;10.24;74.28
8101;BME280;4093;53.470;9.832;2023-03-03T12:29:24;102218.56;;;9.42;76.18
8101;BME280;4093;53.470;9.832;2023-03-03T12:32:01;102214.53;;;9.69;74.89
8101;BME280;4093;53.470;9.832;2023-03-03T12:34:37;102221.84;;;10.13;74.68
8101;BME280;4093;53.470;9.832;2023-03-03T12:37:27;102198.41;;;9.93;74.61
8101;BME280;4093;53.470;9.832;2023-03-03T12:40:07;102217.50;;;10.12;73.97
8101;BME280;4093;53.470;9.832;2023-03-03T12:42:43;102211.66;;;10.28;73.21
8101;BME280;4093;53.470;9.832;2023-03-03T12:45:23;102205.34;;;9.97;74.94
8101;BME280;4093;53.470;9.832;2023-03-03T12:48:00;102196.38;;;9.60;75.42
8101;BME280;4093;53.470;9.832;2023-03-03T12:50:35;102173.47;;;9.10;77.10
8101;BME280;4093;53.470;9.832;2023-03-03T12:53:21;102189.66;;;9.79;75.52
8101;BME280;4093;53.470;9.832;2023-03-03T12:55:53;102191.41;;;9.78;75.68
8101;BME280;4093;53.470;9.832;2023-03-03T12:58:32;102190.41;;;9.67;75.17
8101;BME280;4093;53.470;9.832;2023-03-03T13:01:14;102186.22;;;9.78;75.39
8101;BME280;4093;53.470;9.832;2023-03-03T13:03:56;102175.66;;;9.55;76.74
8101;BME280;4093;53.470;9.832;2023-03-03T13:06:33;102186.19;;;9.75;75.93
8101;BME280;4093;53.470;9.832;2023-03-03T13:09:17;102184.50;;;9.80;76.11
8101;BME280;4093;53.470;9.832;2023-03-03T13:12:09;102186.06;;;9.63;76.44
8101;BME280;4093;53.470;9.832;2023-03-03T13:14:46;102181.91;;;9.77;76.18
8101;BME280;4093;53.470;9.832;2023-03-03T13:17:20;102184.56;;;9.86;76.35
8101;BME280;4093;53.470;9.832;2023-03-03T13:19:55;102180.19;;;9.81;77.01
8101;BME280;4093;53.470;9.832;2023-03-03T13:22:33;102176.53;;;9.57;77.41
8101;BME280;4093;53.470;9.832;2023-03-03T13:25:08;102168.88;;;9.66;77.11
8101;BME280;4093;53.470;9.832;2023-03-03T13:27:47;102182.16;;;9.19;79.15
8101;BME280;4093;53.470;9.832;2023-03-03T13:30:20;102185.91;;;9.49;78.20
8101;BME280;4093;53.470;9.832;2023-03-03T13:32:54;102173.00;;;9.49;76.31
8101;BME280;4093;53.470;9.832;2023-03-03T13:35:32;102159.19;;;9.42;75.89
8101;BME280;4093;53.470;9.832;2023-03-03T13:38:05;102155.66;;;9.36;73.52
8101;BME280;4093;53.470;9.832;2023-03-03T13:40:41;102171.66;;;9.86;72.15
8101;BME280;4093;53.470;9.832;2023-03-03T13:43:14;102145.66;;;9.66;72.11
8101;BME280;4093;53.470;9.832;2023-03-03T13:45:50;102163.94;;;9.91;70.95
8101;BME280;4093;53.470;9.832;2023-03-03T13:48:45;102152.91;;;10.10;70.33
8101;BME280;4093;53.470;9.832;2023-03-03T13:51:25;102153.84;;;10.22;69.47
8101;BME280;4093;53.470;9.832;2023-03-03T13:54:04;102150.41;;;10.24;69.46
8101;BME280;4093;53.470;9.832;2023-03-03T13:56:51;102142.41;;;9.90;70.22
8101;BME280;4093;53.470;9.832;2023-03-03T13:59:29;102138.81;;;9.73;71.12